createdAt,value
2019-05-06T00:00:59.398Z,83.58
2019-05-06T00:01:53.757Z,83.95
2019-05-06T00:02:54.232Z,84.14
2019-05-06T00:03:54.177Z,83.76
2019-05-06T00:04:54.190Z,83.95
2019-05-06T00:05:54.226Z,83.29
2019-05-06T00:07:17.342Z,81.77
2019-05-06T00:07:54.417Z,82.53
2019-05-06T00:08:54.558Z,83.39
2019-05-06T00:09:53.899Z,83.39
2019-05-06T00:10:54.231Z,83.29
2019-05-06T00:11:54.414Z,82.71
2019-05-06T00:12:56.345Z,82.62
2019-05-06T00:13:54.364Z,82.34
2019-05-06T00:14:54.186Z,82.43
2019-05-06T00:17:25.087Z,81.58
2019-05-06T00:18:50.081Z,81.29
2019-05-06T00:19:25.081Z,80.53
2019-05-06T00:20:50.017Z,80.63
2019-05-06T00:21:25.586Z,80.34
2019-05-06T00:22:46.586Z,81.48
2019-05-06T00:23:25.576Z,82.62
2019-05-06T00:24:50.082Z,83.19
2019-05-06T00:25:47.080Z,83.10
2019-05-06T00:26:26.080Z,82.05
2019-05-06T00:27:27.014Z,82.05
2019-05-06T00:28:47.588Z,82.15
2019-05-06T00:29:29.080Z,83.10
2019-05-06T00:31:58.084Z,83.10
2019-05-06T00:32:58.071Z,82.43
2019-05-06T00:33:58.071Z,81.77
2019-05-06T00:35:02.070Z,81.77
2019-05-06T00:36:00.472Z,81.58
2019-05-06T00:36:58.578Z,82.15
2019-05-06T00:37:58.571Z,82.05
2019-05-06T00:38:59.071Z,81.20
2019-05-06T00:40:04.668Z,82.05
2019-05-06T00:40:59.076Z,81.77
2019-05-06T00:41:59.073Z,81.86
2019-05-06T00:42:59.570Z,82.24
2019-05-06T00:43:59.573Z,82.91
2019-05-06T00:45:00.505Z,82.34
2019-05-06T00:46:04.701Z,82.91
2019-05-06T00:47:04.199Z,82.34
2019-05-06T00:48:00.077Z,82.24
2019-05-06T00:49:00.072Z,82.43
2019-05-06T00:50:00.068Z,82.05
2019-05-06T00:51:04.624Z,82.81
2019-05-06T00:52:00.581Z,83.00
2019-05-06T00:53:00.569Z,82.91
2019-05-06T00:54:00.574Z,83.29
2019-05-06T00:55:01.069Z,82.81
2019-05-06T00:56:04.603Z,83.29
2019-05-06T00:57:01.069Z,83.29
2019-05-06T00:58:01.070Z,83.48
2019-05-06T00:59:23.827Z,83.86
2019-05-06T01:00:24.394Z,83.72
2019-05-06T01:02:36.890Z,83.15
2019-05-06T01:03:57.897Z,83.44
2019-05-06T01:04:36.918Z,83.44
2019-05-06T01:05:38.361Z,83.25
2019-05-06T01:06:43.877Z,83.34
2019-05-06T01:07:37.397Z,83.44
2019-05-06T01:08:37.403Z,82.96
2019-05-06T01:09:37.898Z,82.29
2019-05-06T01:10:38.850Z,82.49
2019-05-06T01:11:41.404Z,83.06
2019-05-06T01:12:37.895Z,82.96
2019-05-06T01:13:37.897Z,83.44
2019-05-06T01:14:59.391Z,83.72
2019-05-06T01:15:59.399Z,83.34
2019-05-06T01:16:43.975Z,83.62
2019-05-06T01:17:38.396Z,83.34
2019-05-06T01:18:38.896Z,83.72
2019-05-06T01:19:38.905Z,83.44
2019-05-06T01:20:38.898Z,83.82
2019-05-06T01:21:38.900Z,83.72
2019-05-06T01:22:43.666Z,83.72
2019-05-06T01:23:39.397Z,83.53
2019-05-06T01:24:39.432Z,83.44
2019-05-06T01:25:39.399Z,83.53
2019-05-06T01:27:00.897Z,83.44
2019-05-06T01:27:44.415Z,83.62
2019-05-06T01:28:39.897Z,83.39
2019-05-06T01:29:39.896Z,83.59
2019-05-06T01:30:41.829Z,83.53
2019-05-06T01:31:43.217Z,83.59
2019-05-06T01:32:40.396Z,83.39
2019-05-06T01:33:45.263Z,83.11
2019-05-06T01:36:14.103Z,83.49
2019-05-06T01:37:14.146Z,83.49
2019-05-06T01:38:12.147Z,83.39
2019-05-06T01:39:38.090Z,83.68
2019-05-06T01:40:14.330Z,83.59
2019-05-06T01:41:13.727Z,83.59
2019-05-06T01:42:14.079Z,83.68
2019-05-06T01:43:14.536Z,83.87
2019-05-06T01:44:16.143Z,84.06
2019-05-06T01:45:14.155Z,83.68
2019-05-06T01:46:14.010Z,83.59
2019-05-06T01:47:14.542Z,83.49
2019-05-06T01:48:14.338Z,84.06
2019-05-06T01:49:13.861Z,83.49
2019-05-06T01:50:17.635Z,83.11
2019-05-06T01:51:14.318Z,83.11
2019-05-06T01:52:14.670Z,83.30
2019-05-06T01:53:16.569Z,83.59
2019-05-06T01:54:14.353Z,83.68
2019-05-06T01:55:14.301Z,84.59
2019-05-06T01:56:18.636Z,84.87
2019-05-06T01:57:36.569Z,84.49
2019-05-06T01:58:14.643Z,85.16
2019-05-06T01:59:14.633Z,85.35
2019-05-06T02:00:14.633Z,84.97
2019-05-06T02:01:39.655Z,84.30
2019-05-06T02:03:46.499Z,84.97
2019-05-06T02:04:46.506Z,85.35
2019-05-06T02:05:46.505Z,85.16
2019-05-06T02:06:50.013Z,84.97
2019-05-06T02:07:47.005Z,85.63
2019-05-06T02:08:47.004Z,85.72
2019-05-06T02:09:47.005Z,85.53
2019-05-06T02:10:54.939Z,86.01
2019-05-06T02:11:53.502Z,85.72
2019-05-06T02:12:47.510Z,86.16
2019-05-06T02:13:47.506Z,86.07
2019-05-06T02:14:48.004Z,85.49
2019-05-06T02:15:48.009Z,86.07
2019-05-06T02:16:48.013Z,86.16
2019-05-06T02:17:50.504Z,86.07
2019-05-06T02:20:40.780Z,86.25
2019-05-06T02:21:19.743Z,85.87
2019-05-06T02:22:19.743Z,86.25
2019-05-06T02:23:24.220Z,85.87
2019-05-06T02:24:20.242Z,86.25
2019-05-06T02:25:20.242Z,86.35
2019-05-06T02:26:20.243Z,85.40
2019-05-06T02:27:21.698Z,86.35
2019-05-06T02:28:51.244Z,86.44
2019-05-06T02:29:20.744Z,86.07
2019-05-06T02:30:20.786Z,86.44
2019-05-06T02:31:20.743Z,86.44
2019-05-06T02:32:30.236Z,86.44
2019-05-06T02:33:21.242Z,86.54
2019-05-06T02:34:46.343Z,86.35
2019-05-06T02:35:21.245Z,86.54
2019-05-06T02:36:21.750Z,86.30
2019-05-06T02:37:21.744Z,86.11
2019-05-06T02:38:23.370Z,86.21
2019-05-06T02:39:26.242Z,86.30
2019-05-06T02:40:25.005Z,86.40
2019-05-06T02:41:23.276Z,86.40
2019-05-06T02:42:23.903Z,87.16
2019-05-06T02:43:23.247Z,86.49
2019-05-06T02:44:26.316Z,86.11
2019-05-06T02:45:43.741Z,86.02
2019-05-06T02:46:23.820Z,86.49
2019-05-06T02:47:23.136Z,86.59
2019-05-06T02:48:22.988Z,86.30
2019-05-06T02:49:47.741Z,86.11
2019-05-06T02:50:23.920Z,86.21
2019-05-06T02:51:24.375Z,86.21
2019-05-06T02:52:23.242Z,86.68
2019-05-06T02:53:46.794Z,86.02
2019-05-06T02:54:23.781Z,86.11
2019-05-06T02:55:27.750Z,87.16
2019-05-06T02:56:24.127Z,87.16
2019-05-06T02:57:24.123Z,86.49
2019-05-06T02:58:24.250Z,86.59
2019-05-06T02:59:24.284Z,86.49
2019-05-06T03:00:24.240Z,86.87
2019-05-06T03:01:27.739Z,87.06
2019-05-06T03:02:38.922Z,87.25
2019-05-06T03:03:24.736Z,87.35
2019-05-06T03:04:24.741Z,87.35
2019-05-06T03:05:24.749Z,87.45
2019-05-06T03:06:28.749Z,87.54
2019-05-06T03:07:25.241Z,87.25
2019-05-06T03:08:48.239Z,87.35
2019-05-06T03:09:25.247Z,87.45
2019-05-06T03:10:46.738Z,87.45
2019-05-06T03:11:25.739Z,88.01
2019-05-06T03:12:53.490Z,88.10
2019-05-06T03:13:25.739Z,88.01
2019-05-06T03:14:26.245Z,88.01
2019-05-06T03:15:26.237Z,87.63
2019-05-06T03:16:47.239Z,88.29
2019-05-06T03:17:26.238Z,87.82
2019-05-06T03:18:32.527Z,87.82
2019-05-06T03:19:26.738Z,88.01
2019-05-06T03:20:26.747Z,87.73
2019-05-06T03:21:26.741Z,88.20
2019-05-06T03:22:48.246Z,87.92
2019-05-06T03:23:34.459Z,88.10
2019-05-06T03:24:27.240Z,88.58
2019-05-06T03:25:27.251Z,88.77
2019-05-06T03:26:48.744Z,88.48
2019-05-06T03:27:27.741Z,88.77
2019-05-06T03:28:27.770Z,88.01
2019-05-06T03:29:33.377Z,87.73
2019-05-06T03:30:28.237Z,88.10
2019-05-06T03:31:28.253Z,88.48
2019-05-06T03:32:30.641Z,87.92
2019-05-06T03:33:46.594Z,88.48
2019-05-06T03:34:52.870Z,88.58
2019-05-06T03:35:48.399Z,88.58
2019-05-06T03:36:34.469Z,88.48
2019-05-06T03:37:28.738Z,88.77
2019-05-06T03:38:53.666Z,88.48
2019-05-06T03:39:33.592Z,88.96
2019-05-06T03:40:36.476Z,88.96
2019-05-06T03:41:29.235Z,88.77
2019-05-06T03:42:29.238Z,89.15
2019-05-06T03:43:29.739Z,88.96
2019-05-06T03:44:53.258Z,89.15
2019-05-06T03:45:33.515Z,89.06
2019-05-06T03:46:54.733Z,89.15
2019-05-06T03:47:30.236Z,88.68
2019-05-06T03:48:53.092Z,88.87
2019-05-06T03:49:33.631Z,88.87
2019-05-06T03:50:33.489Z,88.96
2019-05-06T03:51:33.487Z,89.06
2019-05-06T03:52:34.310Z,89.15
2019-05-06T03:53:33.374Z,89.15
2019-05-06T03:54:34.006Z,89.06
2019-05-06T03:55:33.950Z,88.87
2019-05-06T03:56:33.806Z,88.72
2019-05-06T03:57:36.234Z,89.20
2019-05-06T03:58:34.425Z,88.39
2019-05-06T03:59:33.513Z,88.62
2019-05-06T04:00:33.339Z,89.00
2019-05-06T04:01:33.629Z,88.81
2019-05-06T04:02:33.662Z,88.72
2019-05-06T04:03:46.761Z,88.62
2019-05-06T04:04:33.229Z,88.91
2019-05-06T04:05:33.431Z,88.62
2019-05-06T04:06:33.323Z,88.72
2019-05-06T04:07:34.011Z,88.48
2019-05-06T04:08:36.235Z,88.62
2019-05-06T04:09:33.513Z,88.81
2019-05-06T04:10:33.770Z,88.62
2019-05-06T04:11:35.839Z,88.06
2019-05-06T04:12:33.407Z,88.15
2019-05-06T04:13:33.432Z,88.15
2019-05-06T04:14:37.241Z,88.06
2019-05-06T04:15:34.267Z,87.87
2019-05-06T04:16:33.881Z,88.62
2019-05-06T04:17:33.733Z,88.72
2019-05-06T04:18:33.742Z,88.62
2019-05-06T04:19:34.232Z,88.72
2019-05-06T04:20:36.237Z,88.62
2019-05-06T04:21:34.235Z,88.91
2019-05-06T04:22:34.231Z,88.43
2019-05-06T04:23:34.733Z,88.43
2019-05-06T04:24:34.730Z,88.72
2019-05-06T04:25:38.233Z,88.72
2019-05-06T04:26:34.732Z,88.53
2019-05-06T04:27:35.233Z,87.96
2019-05-06T04:30:27.588Z,88.81
2019-05-06T04:31:13.145Z,88.06
2019-05-06T04:32:06.597Z,88.43
2019-05-06T04:33:28.104Z,88.24
2019-05-06T04:34:13.919Z,88.15
2019-05-06T04:35:07.095Z,88.06
2019-05-06T04:36:13.147Z,87.77
2019-05-06T04:37:07.596Z,87.87
2019-05-06T04:38:07.591Z,87.87
2019-05-06T04:39:07.602Z,88.06
2019-05-06T04:40:07.597Z,87.58
2019-05-06T04:41:13.644Z,87.30
2019-05-06T04:43:39.460Z,87.49
2019-05-06T04:44:39.459Z,87.01
2019-05-06T04:45:39.531Z,87.30
2019-05-06T04:46:44.305Z,87.49
2019-05-06T04:48:03.472Z,87.39
2019-05-06T04:48:39.958Z,87.39
2019-05-06T04:49:39.961Z,87.58
2019-05-06T04:52:36.690Z,87.87
2019-05-06T04:53:13.646Z,88.15
2019-05-06T04:54:13.481Z,88.53
2019-05-06T04:55:33.714Z,87.96
2019-05-06T04:56:14.379Z,88.06
2019-05-06T04:57:12.852Z,87.77
2019-05-06T04:58:36.697Z,87.96
2019-05-06T04:59:13.837Z,88.43
2019-05-06T05:03:22.516Z,88.62
2019-05-06T05:04:28.350Z,89.00
2019-05-06T05:05:15.821Z,88.62
2019-05-06T05:06:37.321Z,88.53
2019-05-06T05:07:16.320Z,88.62
2019-05-06T05:08:16.339Z,88.06
2019-05-06T05:09:19.819Z,87.96
2019-05-06T05:10:16.824Z,88.62
2019-05-06T05:11:16.820Z,88.62
2019-05-06T05:12:37.819Z,88.62
2019-05-06T05:13:16.826Z,88.53
2019-05-06T05:14:25.340Z,88.62
2019-05-06T05:15:17.318Z,88.91
2019-05-06T05:16:17.318Z,88.53
2019-05-06T05:17:17.318Z,87.77
2019-05-06T05:18:17.819Z,87.77
2019-05-06T05:19:18.752Z,87.77
2019-05-06T05:20:36.436Z,88.34
2019-05-06T05:21:17.858Z,88.06
2019-05-06T05:22:39.318Z,87.77
2019-05-06T05:23:18.320Z,87.82
2019-05-06T05:24:19.756Z,87.72
2019-05-06T05:25:18.321Z,86.77
2019-05-06T05:26:22.821Z,86.11
2019-05-06T05:27:18.817Z,86.01
2019-05-06T05:28:42.797Z,86.20
2019-05-06T05:29:18.818Z,85.06
2019-05-06T05:30:42.778Z,85.06
2019-05-06T05:31:22.884Z,86.01
2019-05-06T05:32:22.828Z,86.01
2019-05-06T05:33:19.320Z,85.44
2019-05-06T05:34:22.420Z,85.39
2019-05-06T05:35:19.818Z,84.30
2019-05-06T05:36:19.817Z,85.20
2019-05-06T05:37:19.817Z,83.59
2019-05-06T05:38:23.817Z,82.21
2019-05-06T05:39:22.276Z,81.97
2019-05-06T05:40:22.447Z,82.16
2019-05-06T05:41:20.318Z,82.26
2019-05-06T05:42:42.400Z,81.97
2019-05-06T05:43:45.316Z,83.49
2019-05-06T05:44:22.656Z,83.68
2019-05-06T05:45:22.163Z,83.97
2019-05-06T05:46:43.711Z,83.39
2019-05-06T05:47:22.105Z,82.92
2019-05-06T05:48:23.250Z,83.20
2019-05-06T05:49:45.818Z,83.11
2019-05-06T05:50:22.842Z,82.01
2019-05-06T05:51:22.237Z,81.44
2019-05-06T05:52:22.244Z,81.06
2019-05-06T05:53:22.521Z,81.25
2019-05-06T05:54:23.181Z,81.35
2019-05-06T05:55:47.324Z,81.35
2019-05-06T05:56:23.947Z,81.35
2019-05-06T05:57:22.629Z,81.44
2019-05-06T05:58:24.875Z,80.87
2019-05-06T05:59:23.256Z,79.44
2019-05-06T06:00:22.824Z,79.06
2019-05-06T06:01:46.815Z,78.69
2019-05-06T06:02:22.818Z,79.16
2019-05-06T06:04:57.668Z,79.06
2019-05-06T06:07:32.798Z,79.83
2019-05-06T06:08:26.051Z,78.88
2019-05-06T06:09:27.483Z,78.82
2019-05-06T06:10:47.550Z,77.73
2019-05-06T06:13:02.174Z,77.30
2019-05-06T06:15:29.395Z,77.39
2019-05-06T06:16:29.402Z,77.58
2019-05-06T06:17:29.403Z,78.25
2019-05-06T06:18:33.478Z,78.44
2019-05-06T06:19:53.285Z,78.25
2019-05-06T06:20:29.945Z,78.25
2019-05-06T06:21:32.019Z,77.49
2019-05-06T06:22:30.419Z,76.25
2019-05-06T06:25:05.214Z,75.02
2019-05-06T06:26:26.218Z,75.30
2019-05-06T06:27:05.218Z,76.35
2019-05-06T06:28:28.720Z,75.96
2019-05-06T06:30:42.392Z,73.34
2019-05-06T06:31:42.778Z,73.15
2019-05-06T06:33:02.592Z,73.25
2019-05-06T06:33:42.751Z,73.78
2019-05-06T06:34:44.567Z,74.96
2019-05-06T06:35:42.606Z,76.29
2019-05-06T06:36:41.906Z,75.91
2019-05-06T06:37:42.611Z,73.53
2019-05-06T06:38:42.948Z,73.06
2019-05-06T06:39:46.069Z,73.53
2019-05-06T06:40:42.563Z,74.77
2019-05-06T06:41:42.569Z,73.91
2019-05-06T06:42:44.568Z,74.48
2019-05-06T06:43:42.572Z,74.39
2019-05-06T06:44:42.569Z,73.53
2019-05-06T06:46:09.537Z,72.30
2019-05-06T06:46:43.067Z,71.25
2019-05-06T06:47:43.068Z,70.68
2019-05-06T06:48:43.138Z,71.57
2019-05-06T06:49:43.568Z,71.28
2019-05-06T06:50:47.067Z,71.38
2019-05-06T06:52:10.948Z,71.57
2019-05-06T06:52:43.568Z,70.72
2019-05-06T06:54:05.067Z,71.19
2019-05-06T06:55:05.072Z,69.95
2019-05-06T06:56:08.067Z,68.94
2019-05-06T06:56:44.079Z,67.89
2019-05-06T06:57:44.568Z,67.41
2019-05-06T06:58:44.567Z,67.22
2019-05-06T06:59:44.568Z,66.75
2019-05-06T07:00:48.567Z,67.32
2019-05-06T07:02:07.510Z,68.75
2019-05-06T07:02:44.281Z,66.46
2019-05-06T07:05:37.521Z,66.56
2019-05-06T07:06:22.342Z,66.46
2019-05-06T07:07:16.528Z,66.27
2019-05-06T07:08:38.061Z,65.23
2019-05-06T07:09:38.020Z,64.37
2019-05-06T07:10:19.454Z,65.51
2019-05-06T07:11:26.518Z,65.89
2019-05-06T07:13:48.762Z,63.99
2019-05-06T07:14:48.767Z,65.42
2019-05-06T07:15:48.768Z,65.51
2019-05-06T07:16:53.332Z,64.31
2019-05-06T07:19:42.265Z,64.50
2019-05-06T07:20:22.859Z,64.40
2019-05-06T07:21:22.507Z,63.83
2019-05-06T07:25:27.598Z,61.80
2019-05-06T07:26:27.605Z,62.40
2019-05-06T07:27:32.405Z,63.17
2019-05-06T07:28:53.040Z,64.12
2019-05-06T07:29:28.104Z,64.78
2019-05-06T07:30:28.105Z,63.17
2019-05-06T07:31:28.114Z,60.49
2019-05-06T07:32:28.605Z,61.16
2019-05-06T07:33:33.553Z,60.49
2019-05-06T07:34:32.099Z,61.35
2019-05-06T07:35:38.488Z,61.83
2019-05-06T07:36:49.638Z,61.76
2019-05-06T07:37:29.106Z,61.67
2019-05-06T07:38:33.107Z,62.24
2019-05-06T07:39:52.684Z,63.10
2019-05-06T07:40:29.105Z,62.52
2019-05-06T07:41:53.289Z,61.38
2019-05-06T07:45:35.854Z,60.05
2019-05-06T07:46:35.851Z,60.43
2019-05-06T07:47:35.871Z,60.14
2019-05-06T07:48:36.356Z,59.48
2019-05-06T07:50:02.461Z,60.62
2019-05-06T07:50:36.353Z,60.24
2019-05-06T07:51:36.358Z,60.24
2019-05-06T07:54:08.298Z,59.38
2019-05-06T07:55:12.077Z,59.28
2019-05-06T07:56:08.096Z,60.33
2019-05-06T07:58:39.840Z,60.91
2019-05-06T07:59:39.840Z,60.43
2019-05-06T08:00:43.342Z,60.05
2019-05-06T08:01:40.343Z,60.14
2019-05-06T08:02:42.490Z,61.00
2019-05-06T08:03:42.697Z,60.33
2019-05-06T08:04:42.048Z,59.26
2019-05-06T08:05:54.668Z,58.72
2019-05-06T08:06:42.672Z,60.02
2019-05-06T08:07:42.284Z,59.74
2019-05-06T08:08:43.027Z,59.19
2019-05-06T08:11:16.042Z,61.57
2019-05-06T08:12:13.052Z,61.86
2019-05-06T08:13:13.185Z,60.33
2019-05-06T08:14:13.358Z,60.81
2019-05-06T08:15:13.551Z,60.33
2019-05-06T08:16:17.051Z,58.81
2019-05-06T08:17:34.551Z,59.38
2019-05-06T08:18:13.552Z,61.04
2019-05-06T08:19:35.051Z,61.51
2019-05-06T08:20:35.051Z,60.94
2019-05-06T08:21:38.551Z,58.55
2019-05-06T08:22:14.051Z,57.12
2019-05-06T08:23:14.551Z,57.79
2019-05-06T08:24:14.551Z,58.65
2019-05-06T08:25:14.557Z,58.46
2019-05-06T08:26:18.551Z,58.84
2019-05-06T08:30:38.782Z,57.22
2019-05-06T08:31:23.201Z,56.84
2019-05-06T08:32:17.726Z,54.26
2019-05-06T08:33:17.321Z,54.64
2019-05-06T08:34:18.218Z,55.69
2019-05-06T08:35:42.357Z,57.50
2019-05-06T08:36:18.218Z,58.65
2019-05-06T08:37:44.717Z,59.19
2019-05-06T08:38:17.814Z,59.38
2019-05-06T08:39:22.018Z,58.33
2019-05-06T08:40:18.718Z,59.95
2019-05-06T08:41:18.717Z,60.43
2019-05-06T08:42:22.718Z,60.05
2019-05-06T08:43:19.219Z,57.57
2019-05-06T08:44:42.570Z,56.30
2019-05-06T08:45:19.217Z,56.71
2019-05-06T08:46:19.217Z,57.95
2019-05-06T08:47:22.362Z,59.35
2019-05-06T08:48:23.716Z,59.54
2019-05-06T08:49:19.731Z,59.19
2019-05-06T08:51:53.038Z,61.83
2019-05-06T08:52:52.306Z,59.86
2019-05-06T08:54:16.724Z,58.87
2019-05-06T08:54:52.679Z,60.11
2019-05-06T08:55:52.886Z,60.02
2019-05-06T08:56:52.290Z,60.14
2019-05-06T08:57:53.202Z,59.38
2019-05-06T08:58:52.952Z,58.62
2019-05-06T09:00:09.729Z,57.09
2019-05-06T09:00:53.763Z,56.59
2019-05-06T09:01:53.371Z,56.97
2019-05-06T09:02:53.093Z,57.86
2019-05-06T09:04:16.320Z,57.82
2019-05-06T09:04:56.719Z,57.48
2019-05-06T09:05:53.067Z,57.48
2019-05-06T09:07:13.278Z,58.87
2019-05-06T09:07:54.685Z,58.78
2019-05-06T09:09:14.209Z,58.69
2019-05-06T09:09:53.214Z,58.78
2019-05-06T09:10:56.713Z,58.21
2019-05-06T09:12:14.711Z,58.40
2019-05-06T09:12:53.709Z,58.97
2019-05-06T09:14:14.709Z,60.30
2019-05-06T09:14:53.709Z,61.45
2019-05-06T09:15:57.703Z,61.64
2019-05-06T09:16:54.326Z,61.25
2019-05-06T09:17:54.210Z,60.40
2019-05-06T09:18:54.209Z,60.02
2019-05-06T09:21:29.446Z,59.83
2019-05-06T09:22:46.957Z,60.11
2019-05-06T09:23:46.951Z,60.11
2019-05-06T09:24:26.451Z,60.40
2019-05-06T09:25:26.451Z,60.14
2019-05-06T09:26:32.384Z,56.49
2019-05-06T09:27:26.462Z,56.78
2019-05-06T09:28:26.953Z,56.40
2019-05-06T09:29:26.951Z,57.16
2019-05-06T09:30:26.964Z,57.64
2019-05-06T09:31:26.960Z,57.95
2019-05-06T09:32:52.892Z,58.59
2019-05-06T09:33:27.451Z,58.72
2019-05-06T09:34:27.454Z,55.47
2019-05-06T09:35:27.448Z,54.52
2019-05-06T09:36:39.947Z,54.52
2019-05-06T09:37:32.495Z,55.09
2019-05-06T09:38:28.885Z,54.33
2019-05-06T09:39:29.438Z,54.04
2019-05-06T09:40:27.952Z,54.80
2019-05-06T09:41:27.986Z,53.21
2019-05-06T09:42:53.885Z,53.21
2019-05-06T09:43:29.907Z,52.73
2019-05-06T09:44:28.451Z,53.72
2019-05-06T09:45:28.453Z,55.62
2019-05-06T09:46:28.450Z,52.95
2019-05-06T09:47:53.452Z,51.33
2019-05-06T09:48:28.953Z,51.43
2019-05-06T09:49:34.952Z,51.45
2019-05-06T09:50:31.875Z,51.45
2019-05-06T09:53:06.092Z,50.18
2019-05-06T09:54:04.073Z,49.87
2019-05-06T09:55:03.239Z,49.21
2019-05-06T09:56:24.169Z,50.73
2019-05-06T09:57:22.219Z,51.43
2019-05-06T09:58:26.157Z,50.67
2019-05-06T09:59:22.158Z,48.37
2019-05-06T10:00:23.584Z,49.90
2019-05-06T10:02:33.025Z,46.94
2019-05-06T10:03:36.536Z,46.75
2019-05-06T10:04:33.032Z,46.84
2019-05-06T10:07:27.770Z,48.75
2019-05-06T10:08:25.781Z,47.03
2019-05-06T10:09:15.242Z,48.66
2019-05-06T10:10:26.278Z,45.79
2019-05-06T10:11:11.213Z,44.94
2019-05-06T10:12:26.276Z,44.56
2019-05-06T10:13:05.276Z,45.15
2019-05-06T10:15:42.631Z,44.29
2019-05-06T10:16:43.032Z,44.58
2019-05-06T10:19:36.705Z,45.51
2019-05-06T10:20:12.752Z,47.13
2019-05-06T10:21:12.545Z,48.59
2019-05-06T10:23:43.923Z,49.16
2019-05-06T10:24:47.932Z,48.71
2019-05-06T10:25:44.063Z,47.56
2019-05-06T10:28:38.110Z,44.81
2019-05-06T10:29:15.677Z,42.81
2019-05-06T10:30:22.613Z,44.43
2019-05-06T10:31:16.177Z,44.05
2019-05-06T10:32:16.177Z,43.84
2019-05-06T10:33:16.177Z,43.95
2019-05-06T10:34:16.179Z,43.09
2019-05-06T10:35:16.678Z,44.81
2019-05-06T10:36:42.705Z,45.08
2019-05-06T10:37:19.257Z,42.97
2019-05-06T10:38:16.677Z,44.43
2019-05-06T10:41:00.084Z,45.65
2019-05-06T10:43:22.710Z,44.02
2019-05-06T10:44:43.719Z,43.53
2019-05-06T10:45:22.717Z,43.33
2019-05-06T10:46:23.232Z,43.05
2019-05-06T10:47:27.222Z,44.29
2019-05-06T10:48:44.217Z,44.96
2019-05-06T10:49:24.200Z,43.53
2019-05-06T10:52:08.913Z,42.57
2019-05-06T10:52:58.419Z,44.01
2019-05-06T10:53:54.918Z,45.43
2019-05-06T10:54:56.874Z,46.01
2019-05-06T10:57:26.739Z,46.77
2019-05-06T10:58:32.522Z,46.77
2019-05-06T10:59:26.747Z,46.20
2019-05-06T11:00:47.320Z,43.53
2019-05-06T11:01:48.248Z,43.91
2019-05-06T11:02:52.681Z,44.20
2019-05-06T11:03:33.060Z,44.67
2019-05-06T11:04:27.250Z,46.11
2019-05-06T11:05:48.804Z,46.97
2019-05-06T11:06:27.747Z,47.16
2019-05-06T11:07:31.332Z,48.39
2019-05-06T11:08:52.748Z,45.92
2019-05-06T11:09:30.182Z,46.18
2019-05-06T11:10:49.249Z,46.84
2019-05-06T11:11:37.016Z,47.03
2019-05-06T11:12:28.257Z,47.61
2019-05-06T11:13:28.246Z,47.42
2019-05-06T11:14:33.076Z,46.94
2019-05-06T11:15:28.746Z,48.75
2019-05-06T11:16:28.747Z,48.66
2019-05-06T11:17:49.747Z,48.88
2019-05-06T11:18:33.138Z,49.26
2019-05-06T11:19:53.747Z,48.88
2019-05-06T11:22:03.378Z,48.52
2019-05-06T11:23:02.131Z,48.52
2019-05-06T11:24:23.140Z,47.87
2019-05-06T11:25:12.271Z,47.78
2019-05-06T11:26:23.680Z,45.77
2019-05-06T11:27:28.879Z,44.17
2019-05-06T11:28:22.124Z,42.14
2019-05-06T11:30:36.869Z,43.21
2019-05-06T11:31:33.343Z,43.52
2019-05-06T11:32:33.117Z,41.41
2019-05-06T11:33:33.376Z,40.94
2019-05-06T11:34:33.375Z,43.14
2019-05-06T11:35:33.378Z,44.57
2019-05-06T11:36:37.658Z,43.50
2019-05-06T11:37:46.256Z,44.55
2019-05-06T11:38:33.877Z,43.59
2019-05-06T11:39:54.881Z,44.26
2019-05-06T11:40:33.876Z,44.43
2019-05-06T11:41:37.877Z,43.66
2019-05-06T11:42:55.386Z,43.09
2019-05-06T11:43:34.381Z,43.00
2019-05-06T11:44:34.373Z,44.15
2019-05-06T11:45:55.876Z,45.10
2019-05-06T11:46:34.877Z,45.17
2019-05-06T11:47:58.876Z,45.27
2019-05-06T11:48:34.878Z,44.79
2019-05-06T11:49:35.391Z,44.22
2019-05-06T11:50:35.375Z,45.08
2019-05-06T11:51:35.380Z,47.27
2019-05-06T11:52:39.380Z,48.61
2019-05-06T11:53:35.876Z,48.61
2019-05-06T11:54:35.876Z,47.75
2019-05-06T11:55:56.875Z,47.47
2019-05-06T11:56:47.950Z,46.80
2019-05-06T11:59:31.807Z,46.80
2019-05-06T12:00:12.633Z,48.33
2019-05-06T12:01:13.296Z,48.52
2019-05-06T12:02:13.305Z,48.33
2019-05-06T12:03:35.770Z,49.47
2019-05-06T12:04:25.283Z,49.07
2019-05-06T12:05:11.269Z,48.61
2019-05-06T12:06:33.012Z,48.52
2019-05-06T12:07:15.470Z,47.18
2019-05-06T12:08:36.270Z,46.89
2019-05-06T12:09:33.408Z,47.18
2019-05-06T12:10:12.979Z,45.37
2019-05-06T12:12:44.025Z,44.67
2019-05-06T12:13:48.949Z,44.01
2019-05-06T12:14:44.015Z,44.58
2019-05-06T12:17:36.754Z,44.96
2019-05-06T12:18:15.763Z,46.11
2019-05-06T12:19:19.263Z,44.74
2019-05-06T12:20:42.542Z,44.65
2019-05-06T12:21:19.310Z,44.56
2019-05-06T12:22:37.271Z,44.77
2019-05-06T12:23:16.262Z,45.25
2019-05-06T12:24:43.762Z,46.11
2019-05-06T12:25:37.759Z,46.39
2019-05-06T12:26:16.769Z,45.34
2019-05-06T12:27:16.761Z,45.72
2019-05-06T12:29:52.755Z,47.25
2019-05-06T12:32:22.554Z,49.16
2019-05-06T12:33:42.729Z,49.44
2019-05-06T12:35:55.087Z,49.07
2019-05-06T12:36:52.723Z,48.21
2019-05-06T12:37:53.060Z,47.16
2019-05-06T12:38:52.483Z,47.06
2019-05-06T12:39:54.523Z,45.25
2019-05-06T12:43:58.291Z,45.72
2019-05-06T12:45:03.436Z,46.97
2019-05-06T12:46:22.802Z,48.59
2019-05-06T12:48:30.011Z,45.63
2019-05-06T12:49:32.390Z,45.92
2019-05-06T12:50:30.023Z,47.44
2019-05-06T12:51:34.521Z,47.06
2019-05-06T12:52:33.455Z,47.25
2019-05-06T12:53:32.635Z,47.06
2019-05-06T12:54:33.282Z,44.87
2019-05-06T12:55:52.105Z,44.87
2019-05-06T12:56:34.518Z,46.01
2019-05-06T12:57:53.001Z,46.97
2019-05-06T12:58:52.557Z,47.16
2019-05-06T12:59:53.021Z,49.47
2019-05-06T13:00:31.522Z,48.80
2019-05-06T13:01:35.524Z,46.22
2019-05-06T13:02:32.847Z,46.03
2019-05-06T13:03:53.018Z,45.84
2019-05-06T13:04:59.714Z,43.46
2019-05-06T13:05:32.094Z,43.72
2019-05-06T13:06:33.444Z,44.29
2019-05-06T13:07:35.525Z,45.43
2019-05-06T13:08:49.746Z,46.77
2019-05-06T13:09:33.158Z,46.11
2019-05-06T13:10:33.553Z,46.30
2019-05-06T13:11:33.025Z,45.82
2019-05-06T13:12:37.991Z,46.11
2019-05-06T13:13:33.278Z,46.89
2019-05-06T13:14:33.274Z,47.06
2019-05-06T13:15:54.519Z,46.01
2019-05-06T13:18:08.404Z,46.01
2019-05-06T13:19:04.247Z,46.68
2019-05-06T13:20:04.894Z,46.87
2019-05-06T13:21:26.394Z,46.11
2019-05-06T13:22:26.390Z,44.38
2019-05-06T13:23:09.528Z,46.01
2019-05-06T13:24:29.631Z,48.21
2019-05-06T13:25:26.911Z,49.93
2019-05-06T13:26:26.893Z,49.26
2019-05-06T13:27:05.910Z,48.59
2019-05-06T13:28:16.832Z,49.54
2019-05-06T13:29:34.811Z,49.16
2019-05-06T13:31:37.649Z,49.35
2019-05-06T13:32:39.087Z,46.01
2019-05-06T13:33:37.720Z,46.11
2019-05-06T13:36:13.219Z,45.34
2019-05-06T13:37:14.026Z,45.15
2019-05-06T13:38:12.548Z,44.96
2019-05-06T13:40:56.467Z,45.84
2019-05-06T13:41:43.622Z,45.94
2019-05-06T13:42:44.293Z,47.94
2019-05-06T13:43:46.787Z,48.61
2019-05-06T13:44:44.820Z,48.52
2019-05-06T13:45:48.285Z,49.09
2019-05-06T13:46:44.783Z,49.28
2019-05-06T13:47:47.285Z,46.70
2019-05-06T13:48:45.284Z,45.84
2019-05-06T13:49:45.289Z,48.23
2019-05-06T13:50:49.284Z,45.94
2019-05-06T13:53:17.028Z,46.15
2019-05-06T13:54:17.048Z,45.48
2019-05-06T13:55:17.051Z,45.79
2019-05-06T13:56:42.570Z,47.52
2019-05-06T13:57:17.530Z,44.36
2019-05-06T13:58:17.528Z,44.43
2019-05-06T13:59:17.536Z,46.25
2019-05-06T14:00:17.121Z,44.91
2019-05-06T14:01:24.027Z,45.29
2019-05-06T14:02:22.032Z,45.20
2019-05-06T14:03:18.036Z,45.67
2019-05-06T14:04:18.532Z,47.66
2019-05-06T14:05:18.530Z,48.33
2019-05-06T14:06:18.553Z,44.51
2019-05-06T14:07:18.536Z,44.51
2019-05-06T14:08:22.259Z,44.70
2019-05-06T14:09:31.316Z,43.74
2019-05-06T14:10:42.135Z,43.93
2019-05-06T14:11:19.030Z,44.60
2019-05-06T14:12:42.616Z,45.08
2019-05-06T14:13:22.531Z,45.84
2019-05-06T14:14:22.630Z,45.84
2019-05-06T14:15:23.015Z,46.61
2019-05-06T14:16:42.711Z,46.61
2019-05-06T14:17:42.385Z,46.42
2019-05-06T14:18:23.530Z,47.27
2019-05-06T14:20:52.234Z,48.42
2019-05-06T14:21:52.374Z,48.04
2019-05-06T14:22:52.801Z,47.82
2019-05-06T14:23:56.032Z,48.59
2019-05-06T14:24:52.530Z,48.68